Time;durP1;ratioP1;P1;durP2;ratioP2;P2;SDS_P1;SDS_P2;PMS_P1;PMS_P2;Temp;Humidity;BMP_temperature;BMP_pressure;BME280_temperature;BME280_humidity;BME280_pressure;Samples;Min_cycle;Max_cycle;Signal;HPM_P1;HPM_P2
2022/03/22 00:01:22;;;;;;;53.58;26.00;;;6.80;99.90;;;;;;5118801;27;20039;-84
2022/03/22 00:03:48;;;;;;;54.88;26.33;;;6.80;99.90;;;;;;5118754;27;20382;-84
2022/03/22 00:06:14;;;;;;;51.22;25.88;;;6.80;99.90;;;;;;5118394;27;20050;-84
2022/03/22 00:08:41;;;;;;;51.28;25.35;;;6.80;99.90;;;;;;5118986;27;20110;-84
2022/03/22 00:11:07;;;;;;;49.92;25.13;;;6.80;99.90;;;;;;5118558;27;20042;-84
2022/03/22 00:13:33;;;;;;;50.20;24.83;;;6.80;99.90;;;;;;5101385;27;20047;-84
2022/03/22 00:15:59;;;;;;;51.45;25.27;;;6.80;99.90;;;;;;5118705;27;20039;-84
2022/03/22 00:18:24;;;;;;;55.40;25.55;;;6.80;99.90;;;;;;5118226;27;20043;-84
2022/03/22 00:20:50;;;;;;;54.00;26.42;;;6.70;99.90;;;;;;5101215;27;20043;-84
2022/03/22 00:23:21;;;;;;;52.13;26.00;;;6.70;99.90;;;;;;5118485;27;20050;-84
2022/03/22 00:25:47;;;;;;;54.25;25.83;;;6.70;99.90;;;;;;5118491;27;20039;-84
2022/03/22 00:28:13;;;;;;;53.42;26.00;;;6.70;99.90;;;;;;5118642;27;20035;-84
2022/03/22 00:30:40;;;;;;;54.22;26.70;;;6.70;99.90;;;;;;5101058;27;20501;-84
2022/03/22 00:36:24;;;;;;;56.83;25.77;;;6.70;99.90;;;;;;4751821;22;3314071;-84
2022/03/22 00:41:17;;;;;;;53.33;26.27;;;6.70;99.90;;;;;;5159509;22;20056;-84
2022/03/22 00:43:43;;;;;;;56.33;26.35;;;6.70;99.90;;;;;;5106003;22;20048;-84
2022/03/22 00:46:12;;;;;;;51.03;26.23;;;6.70;99.90;;;;;;5068723;28;20054;-84
2022/03/22 00:48:40;;;;;;;53.05;26.83;;;6.70;99.90;;;;;;5078906;22;20053;-84
2022/03/22 00:51:10;;;;;;;51.65;25.77;;;6.70;99.90;;;;;;5103941;22;20051;-84
2022/03/22 00:53:36;;;;;;;53.53;25.75;;;6.70;99.90;;;;;;5127783;27;20051;-84
2022/03/22 00:56:01;;;;;;;52.97;27.48;;;6.60;99.90;;;;;;5109756;27;20043;-84
2022/03/22 00:58:27;;;;;;;54.45;25.83;;;6.60;99.90;;;;;;5112296;27;20045;-84
2022/03/22 01:00:53;;;;;;;51.38;25.75;;;6.70;99.90;;;;;;5145567;27;20052;-84
2022/03/22 01:03:19;;;;;;;54.30;26.02;;;6.60;99.90;;;;;;5112227;27;20034;-84
2022/03/22 01:05:44;;;;;;;55.03;26.65;;;6.60;99.90;;;;;;5130072;27;20031;-84
2022/03/22 01:08:12;;;;;;;55.28;27.38;;;6.60;99.90;;;;;;5128660;27;20053;-84
2022/03/22 01:10:41;;;;;;;51.33;26.05;;;6.60;99.90;;;;;;5132148;27;20035;-84
2022/03/22 01:13:08;;;;;;;53.30;26.55;;;6.60;99.90;;;;;;5129463;27;20044;-84
2022/03/22 01:15:35;;;;;;;51.88;26.10;;;6.60;99.90;;;;;;5112206;27;20362;-84
2022/03/22 01:18:07;;;;;;;56.35;27.48;;;6.60;99.90;;;;;;5107891;27;20091;-84
2022/03/22 01:20:38;;;;;;;51.28;26.83;;;6.60;99.90;;;;;;5129603;27;20039;-84
2022/03/22 01:23:07;;;;;;;48.85;25.83;;;6.60;99.90;;;;;;5146253;27;20130;-84
2022/03/22 01:25:34;;;;;;;56.33;26.55;;;6.50;99.90;;;;;;5109725;27;20022;-84
2022/03/22 01:28:02;;;;;;;55.80;27.33;;;6.50;99.90;;;;;;5124577;27;20545;-84
2022/03/22 01:30:29;;;;;;;53.03;27.23;;;6.50;99.90;;;;;;5130856;27;20039;-84
2022/03/22 01:32:56;;;;;;;56.88;27.17;;;6.50;99.90;;;;;;5127333;27;20034;-84
2022/03/22 01:35:23;;;;;;;56.83;26.50;;;6.50;99.90;;;;;;5147011;27;20102;-84
2022/03/22 01:37:50;;;;;;;48.72;25.65;;;6.50;99.90;;;;;;5125930;27;20074;-84
2022/03/22 01:40:18;;;;;;;50.85;25.45;;;6.50;99.90;;;;;;5125680;27;20054;-84
2022/03/22 01:42:44;;;;;;;53.03;26.20;;;6.50;99.90;;;;;;5108880;28;20086;-84
2022/03/22 01:45:11;;;;;;;49.92;26.65;;;6.50;99.90;;;;;;5108195;27;20122;-84
2022/03/22 01:47:38;;;;;;;53.97;26.90;;;6.50;99.90;;;;;;5123124;27;20027;-84
2022/03/22 01:50:05;;;;;;;53.78;27.92;;;6.50;99.90;;;;;;5124215;27;20073;-84
2022/03/22 01:52:34;;;;;;;54.05;26.23;;;6.60;99.90;;;;;;5105530;27;20031;-84
2022/03/22 01:55:01;;;;;;;55.45;27.08;;;6.60;99.90;;;;;;5124429;27;20019;-84
2022/03/22 01:57:30;;;;;;;55.58;27.77;;;6.60;99.90;;;;;;5127721;27;20054;-84
2022/03/22 01:59:56;;;;;;;53.30;26.30;;;6.60;99.90;;;;;;5126805;27;20095;-84
2022/03/22 02:07:57;;;;;;;57.85;27.00;;;6.60;99.90;;;;;;5126673;28;20111;-84
2022/03/22 02:10:22;;;;;;;56.75;26.45;;;6.60;99.90;;;;;;5143966;27;20027;-84
2022/03/22 02:12:48;;;;;;;55.65;26.38;;;6.60;99.90;;;;;;5125800;27;20038;-84
2022/03/22 02:15:14;;;;;;;55.03;26.98;;;6.50;99.90;;;;;;5126908;28;20413;-84
2022/03/22 02:17:42;;;;;;;59.95;27.55;;;6.50;99.90;;;;;;5126645;28;20058;-84
2022/03/22 02:20:09;;;;;;;56.67;27.40;;;6.50;99.90;;;;;;5110890;28;20342;-84
2022/03/22 02:22:57;;;;;;;48.95;26.05;;;6.50;99.90;;;;;;5143121;27;20114;-84
2022/03/22 02:25:23;;;;;;;56.40;27.10;;;6.50;99.90;;;;;;5130294;28;20027;-84
2022/03/22 02:27:54;;;;;;;58.90;27.20;;;6.50;99.90;;;;;;5113283;28;20105;-84
2022/03/22 02:30:21;;;;;;;55.03;26.35;;;6.50;99.90;;;;;;5128502;27;20046;-84
2022/03/22 02:33:00;;;;;;;57.00;27.05;;;6.50;99.90;;;;;;5125795;28;20023;-84
2022/03/22 02:35:28;;;;;;;53.75;27.83;;;6.40;99.90;;;;;;5128700;27;20047;-84
2022/03/22 02:37:55;;;;;;;53.08;26.50;;;6.40;99.90;;;;;;5128494;28;20027;-84
2022/03/22 02:40:21;;;;;;;56.40;26.58;;;6.40;99.90;;;;;;5129063;27;20043;-84
2022/03/22 02:42:54;;;;;;;56.35;26.98;;;6.40;99.90;;;;;;5129243;28;20050;-84
2022/03/22 02:45:21;;;;;;;56.75;27.20;;;6.40;99.90;;;;;;5123761;28;20039;-84
2022/03/22 02:47:46;;;;;;;55.10;26.73;;;6.40;99.90;;;;;;5133018;28;20383;-84
2022/03/22 02:50:12;;;;;;;55.05;26.67;;;6.40;99.90;;;;;;5131690;27;20070;-84
2022/03/22 02:52:40;;;;;;;55.72;26.50;;;6.30;99.90;;;;;;5128145;28;20442;-84
2022/03/22 02:55:08;;;;;;;54.03;26.35;;;6.30;99.90;;;;;;5147303;28;20125;-84
2022/03/22 02:57:35;;;;;;;52.10;27.17;;;6.30;99.90;;;;;;5130154;28;20038;-84
2022/03/22 03:00:03;;;;;;;54.63;26.58;;;6.30;99.90;;;;;;5112089;28;20023;-84
2022/03/22 03:02:29;;;;;;;51.35;26.88;;;6.30;99.90;;;;;;5133137;28;20146;-84
2022/03/22 03:04:55;;;;;;;53.90;26.75;;;6.20;99.90;;;;;;5129822;27;20015;-84
2022/03/22 03:07:20;;;;;;;53.95;27.02;;;6.20;99.90;;;;;;5129228;28;20072;-84
2022/03/22 03:09:46;;;;;;;54.38;27.25;;;6.20;99.90;;;;;;5126678;27;20034;-84
2022/03/22 03:12:12;;;;;;;55.72;28.05;;;6.20;99.90;;;;;;5124327;28;20047;-84
2022/03/22 03:14:40;;;;;;;56.03;26.80;;;6.10;99.90;;;;;;5113347;27;20096;-84
2022/03/22 03:17:08;;;;;;;59.40;28.67;;;6.10;99.90;;;;;;5129819;28;20039;-84
2022/03/22 03:19:34;;;;;;;55.17;27.35;;;6.10;99.90;;;;;;5125927;28;20023;-84
2022/03/22 03:22:00;;;;;;;57.67;28.02;;;6.00;99.90;;;;;;5131378;28;20050;-84
2022/03/22 03:24:26;;;;;;;58.97;27.92;;;6.10;99.90;;;;;;5144776;27;20043;-84
2022/03/22 03:26:52;;;;;;;55.55;27.17;;;6.00;99.90;;;;;;5130229;28;20027;-84
2022/03/22 03:29:17;;;;;;;57.67;28.55;;;6.00;99.90;;;;;;5127113;27;20107;-84
2022/03/22 03:31:43;;;;;;;55.67;27.45;;;6.00;99.90;;;;;;5128428;27;20110;-84
2022/03/22 03:34:09;;;;;;;57.65;27.77;;;5.90;99.90;;;;;;5130217;27;20532;-84
2022/03/22 03:36:35;;;;;;;58.08;27.80;;;5.90;99.90;;;;;;5131197;27;20040;-84
2022/03/22 03:39:03;;;;;;;60.88;27.13;;;5.90;99.90;;;;;;5131958;27;20110;-84
2022/03/22 03:47:04;;;;;;;57.90;27.20;;;5.80;99.90;;;;;;5152302;27;20055;-84
2022/03/22 03:49:32;;;;;;;66.13;28.48;;;5.80;99.90;;;;;;5130377;27;20416;-84
2022/03/22 03:51:58;;;;;;;56.45;27.25;;;5.70;99.90;;;;;;5130809;27;20550;-84
2022/03/22 03:54:24;;;;;;;63.40;29.17;;;5.80;99.90;;;;;;5112782;27;20047;-84
2022/03/22 03:56:49;;;;;;;54.20;27.90;;;5.70;99.90;;;;;;5127991;27;20039;-84
2022/03/22 03:59:15;;;;;;;57.08;28.60;;;5.70;99.90;;;;;;5123489;27;20050;-84
2022/03/22 04:01:43;;;;;;;57.35;28.48;;;5.70;99.90;;;;;;5122768;27;20047;-84
2022/03/22 04:04:08;;;;;;;60.08;28.10;;;5.60;99.90;;;;;;5123272;27;20051;-84
2022/03/22 04:06:34;;;;;;;59.60;28.52;;;5.60;99.90;;;;;;5122824;27;20053;-84
2022/03/22 04:08:59;;;;;;;55.08;27.33;;;5.60;99.90;;;;;;5139644;27;20050;-84
2022/03/22 04:11:25;;;;;;;59.03;28.95;;;5.60;99.90;;;;;;5123207;27;20530;-84
2022/03/22 04:13:51;;;;;;;61.47;29.30;;;5.60;99.90;;;;;;5105525;27;20040;-84
2022/03/22 04:16:17;;;;;;;61.40;29.65;;;5.60;99.90;;;;;;5122680;27;20036;-84
2022/03/22 04:18:42;;;;;;;59.33;28.80;;;5.50;99.90;;;;;;5121828;27;20446;-84
2022/03/22 04:21:08;;;;;;;59.67;28.80;;;5.50;99.90;;;;;;5104616;27;20039;-84
2022/03/22 04:23:33;;;;;;;61.55;29.15;;;5.50;99.90;;;;;;5105658;27;20107;-84
2022/03/22 04:26:00;;;;;;;55.92;28.30;;;5.50;99.90;;;;;;5122843;27;20043;-84
2022/03/22 04:33:54;;;;;;;60.90;30.13;;;5.40;99.90;;;;;;5120004;27;20079;-84
2022/03/22 04:36:19;;;;;;;59.08;29.17;;;5.40;99.90;;;;;;5104633;27;20461;-84
2022/03/22 04:38:45;;;;;;;60.28;29.40;;;5.50;99.90;;;;;;5120850;27;20084;-84
2022/03/22 04:41:11;;;;;;;56.28;28.92;;;5.50;99.90;;;;;;5120360;27;20035;-84
2022/03/22 04:43:37;;;;;;;60.80;29.13;;;5.40;99.90;;;;;;5118518;27;20043;-84
2022/03/22 04:46:03;;;;;;;62.88;30.48;;;5.50;99.90;;;;;;5119453;27;20039;-84
2022/03/22 04:48:29;;;;;;;59.58;29.27;;;5.40;99.90;;;;;;5118913;27;20405;-84
2022/03/22 04:59:08;;;;;;;60.30;30.58;;;5.40;99.90;;;;;;5119589;27;20057;-84
2022/03/22 05:01:34;;;;;;;63.55;30.02;;;5.40;99.90;;;;;;5118940;27;20047;-84
2022/03/22 05:03:59;;;;;;;58.92;30.02;;;5.40;99.90;;;;;;5119160;27;20078;-84
2022/03/22 05:06:28;;;;;;;59.03;28.77;;;5.40;99.90;;;;;;5101810;27;20488;-84
2022/03/22 05:08:54;;;;;;;57.20;29.02;;;5.40;99.90;;;;;;5119206;27;20050;-84
2022/03/22 05:11:21;;;;;;;63.35;29.15;;;5.40;99.90;;;;;;5119109;27;20055;-84
2022/03/22 05:13:47;;;;;;;57.70;29.73;;;5.40;99.90;;;;;;5121201;27;20138;-84
2022/03/22 05:16:14;;;;;;;60.50;29.75;;;5.30;99.90;;;;;;5101295;27;20483;-84
2022/03/22 05:18:41;;;;;;;60.70;29.38;;;5.40;99.90;;;;;;5101337;27;20046;-84
2022/03/22 05:21:07;;;;;;;61.95;29.15;;;5.30;99.90;;;;;;5118518;27;20050;-84
2022/03/22 05:23:34;;;;;;;56.92;28.80;;;5.30;99.90;;;;;;5120710;27;20126;-84
2022/03/22 05:26:00;;;;;;;58.03;28.75;;;5.30;99.90;;;;;;5121353;27;20060;-84
2022/03/22 05:28:26;;;;;;;59.35;28.73;;;5.30;99.90;;;;;;5123872;27;20099;-84
2022/03/22 05:30:51;;;;;;;60.78;29.40;;;5.30;99.90;;;;;;5110405;27;20091;-84
2022/03/22 05:33:17;;;;;;;59.72;29.15;;;5.30;99.90;;;;;;5123208;27;20043;-85
2022/03/22 05:35:43;;;;;;;59.35;28.92;;;5.30;99.90;;;;;;5123628;27;20518;-86
2022/03/22 05:38:09;;;;;;;57.95;29.10;;;5.20;99.90;;;;;;5118576;27;20047;-85
2022/03/22 05:40:34;;;;;;;59.33;29.55;;;5.20;99.90;;;;;;5118061;27;20084;-85
2022/03/22 05:43:00;;;;;;;56.13;29.02;;;5.20;99.90;;;;;;5118661;27;20051;-85
2022/03/22 05:45:28;;;;;;;58.53;28.60;;;5.20;99.90;;;;;;5117752;27;20127;-85
2022/03/22 05:47:54;;;;;;;61.40;29.33;;;5.20;99.90;;;;;;5136527;27;20126;-85
2022/03/22 05:50:20;;;;;;;60.00;29.83;;;5.20;99.90;;;;;;5117874;27;20066;-85
2022/03/22 05:52:47;;;;;;;55.65;28.75;;;5.20;99.90;;;;;;5117039;27;20051;-85
2022/03/22 05:55:13;;;;;;;62.30;30.77;;;5.20;99.90;;;;;;5117462;27;20043;-85
2022/03/22 05:57:39;;;;;;;57.67;30.25;;;5.20;99.90;;;;;;5117822;27;20504;-85
2022/03/22 06:00:07;;;;;;;59.72;30.65;;;5.20;99.90;;;;;;5117397;27;20111;-85
2022/03/22 06:02:37;;;;;;;58.15;28.85;;;5.20;99.90;;;;;;5118000;27;20039;-85
2022/03/22 06:05:05;;;;;;;66.35;29.85;;;5.30;99.90;;;;;;5117494;27;20164;-85
2022/03/22 06:07:30;;;;;;;57.42;29.17;;;5.30;99.90;;;;;;5100734;27;20066;-85
2022/03/22 06:09:57;;;;;;;62.38;30.13;;;5.30;99.90;;;;;;5117448;27;20485;-85
2022/03/22 06:12:22;;;;;;;62.00;30.60;;;5.30;99.90;;;;;;5118199;27;20095;-85
2022/03/22 06:15:14;;;;;;;60.50;30.10;;;5.30;99.90;;;;;;5124540;28;20131;-85
2022/03/22 06:17:33;;;;;;;60.85;30.27;;;5.30;99.90;;;;;;5118349;28;20096;-85
2022/03/22 06:19:59;;;;;;;57.85;29.17;;;5.40;99.90;;;;;;5118081;28;20434;-85
2022/03/22 06:22:25;;;;;;;59.35;29.35;;;5.40;99.90;;;;;;5117605;28;20043;-85
2022/03/22 06:24:51;;;;;;;58.55;29.30;;;5.40;99.90;;;;;;5117573;28;20074;-85
2022/03/22 06:27:17;;;;;;;63.15;30.13;;;5.50;99.90;;;;;;5100647;28;20039;-85
2022/03/22 06:29:43;;;;;;;57.63;28.88;;;5.50;99.90;;;;;;5117800;28;20434;-85
2022/03/22 06:32:11;;;;;;;57.42;29.20;;;5.50;99.90;;;;;;5100136;28;20096;-85
2022/03/22 06:34:37;;;;;;;58.35;29.08;;;5.60;99.90;;;;;;5100771;28;20414;-85
2022/03/22 06:37:03;;;;;;;54.22;28.88;;;5.70;99.90;;;;;;5117211;28;20035;-85
2022/03/22 06:39:29;;;;;;;60.30;29.40;;;5.70;99.90;;;;;;5117695;28;20567;-85
2022/03/22 06:41:55;;;;;;;59.30;29.67;;;5.80;99.90;;;;;;5100144;28;20084;-85
2022/03/22 06:44:21;;;;;;;58.97;28.52;;;5.90;99.90;;;;;;5100868;28;20098;-85
2022/03/22 06:46:47;;;;;;;59.03;29.77;;;6.00;99.90;;;;;;5117818;28;20102;-85
2022/03/22 06:49:12;;;;;;;57.03;28.70;;;6.10;99.90;;;;;;5117770;28;20362;-85
2022/03/22 06:51:38;;;;;;;57.22;28.42;;;6.30;99.90;;;;;;5100044;28;20130;-86
2022/03/22 06:54:04;;;;;;;54.50;28.45;;;6.50;99.90;;;;;;5116734;28;20043;-86
2022/03/22 06:56:31;;;;;;;52.72;27.50;;;6.60;99.90;;;;;;5117112;28;20084;-86
2022/03/22 06:58:58;;;;;;;53.95;28.48;;;6.70;99.90;;;;;;5116834;28;20086;-86
2022/03/22 07:01:24;;;;;;;52.28;27.75;;;6.80;99.90;;;;;;5117143;28;20569;-86
2022/03/22 07:03:49;;;;;;;53.88;26.98;;;7.00;99.90;;;;;;5116943;28;20075;-86
2022/03/22 07:06:15;;;;;;;55.47;28.17;;;7.10;99.90;;;;;;5118019;27;20050;-86
2022/03/22 07:08:41;;;;;;;46.63;27.73;;;7.20;99.90;;;;;;5103608;27;20043;-86
2022/03/22 07:13:52;;;;;;;51.20;26.75;;;7.40;99.90;;;;;;5121149;27;20047;-86
2022/03/22 07:16:19;;;;;;;51.15;27.05;;;7.50;99.90;;;;;;5120627;27;20497;-86
2022/03/22 07:18:44;;;;;;;50.25;26.67;;;7.50;99.90;;;;;;5120776;27;20058;-86
2022/03/22 07:21:10;;;;;;;51.28;28.10;;;7.60;99.90;;;;;;5121068;27;20047;-86
2022/03/22 07:23:36;;;;;;;46.47;26.65;;;7.70;99.90;;;;;;5104711;27;20058;-86
2022/03/22 07:26:03;;;;;;;48.67;27.45;;;7.70;99.90;;;;;;5121147;27;20063;-86
2022/03/22 07:28:29;;;;;;;49.92;26.38;;;7.80;99.90;;;;;;5103809;27;20101;-86
2022/03/22 07:30:54;;;;;;;49.15;26.83;;;7.80;99.90;;;;;;5120699;27;20562;-86
2022/03/22 07:33:20;;;;;;;48.78;26.27;;;7.90;99.90;;;;;;5137890;27;20043;-86
2022/03/22 07:35:46;;;;;;;46.75;26.02;;;7.90;99.90;;;;;;5104137;27;20091;-86
2022/03/22 07:38:11;;;;;;;46.28;25.35;;;8.00;99.90;;;;;;5120697;27;20096;-86
2022/03/22 07:40:37;;;;;;;46.60;25.50;;;8.00;99.90;;;;;;5103045;27;20050;-86
2022/03/22 07:43:03;;;;;;;46.75;25.75;;;8.10;99.90;;;;;;5120196;27;20043;-86
2022/03/22 07:45:28;;;;;;;48.83;26.08;;;8.10;99.90;;;;;;5103693;27;20108;-86
2022/03/22 07:47:54;;;;;;;47.63;26.77;;;8.20;99.90;;;;;;5104425;27;20473;-86
2022/03/22 07:53:07;;;;;;;49.40;25.17;;;8.30;99.90;;;;;;5133017;27;20054;-87
2022/03/22 07:55:40;;;;;;;46.95;25.98;;;8.40;99.90;;;;;;5135588;27;20043;-91
2022/03/22 07:58:08;;;;;;;48.97;26.13;;;8.50;99.90;;;;;;5130030;27;20046;-86
2022/03/22 08:00:39;;;;;;;46.63;26.73;;;8.60;99.90;;;;;;5120914;27;20046;-86
2022/03/22 08:03:08;;;;;;;50.58;27.02;;;8.80;99.90;;;;;;5103059;27;20065;-86
2022/03/22 08:05:35;;;;;;;49.92;26.73;;;9.00;99.90;;;;;;5104543;27;20552;-86
2022/03/22 08:08:01;;;;;;;48.58;25.98;;;9.30;99.90;;;;;;5121140;27;20061;-86
2022/03/22 08:10:28;;;;;;;42.92;24.27;;;9.30;99.90;;;;;;5120944;27;20043;-86
2022/03/22 08:12:54;;;;;;;42.35;24.20;;;9.50;99.90;;;;;;5120861;27;20504;-86
2022/03/22 08:15:20;;;;;;;45.17;25.67;;;9.60;99.90;;;;;;5121180;27;20050;-86
2022/03/22 08:17:46;;;;;;;44.15;25.50;;;9.70;99.90;;;;;;5119693;27;20046;-86
2022/03/22 08:20:13;;;;;;;42.75;23.48;;;9.70;99.90;;;;;;5120620;27;20099;-86
2022/03/22 08:22:54;;;;;;;44.10;24.95;;;9.80;99.90;;;;;;5121635;27;20035;-86
2022/03/22 08:25:26;;;;;;;44.15;25.00;;;9.90;99.90;;;;;;5121893;27;20047;-87
2022/03/22 08:27:52;;;;;;;43.90;24.77;;;10.00;99.90;;;;;;5106373;27;20125;-86
2022/03/22 08:30:21;;;;;;;39.42;22.88;;;10.00;99.90;;;;;;5104022;27;20073;-86
2022/03/22 08:32:55;;;;;;;46.80;24.50;;;10.10;99.90;;;;;;5120516;27;20521;-86
2022/03/22 08:35:23;;;;;;;43.85;24.23;;;10.20;99.90;;;;;;5137782;27;20042;-86
2022/03/22 08:37:49;;;;;;;42.95;23.23;;;10.30;99.90;;;;;;5122889;27;20046;-85
2022/03/22 08:40:16;;;;;;;43.50;23.80;;;10.30;99.90;;;;;;5139243;27;20043;-86
2022/03/22 08:42:44;;;;;;;42.72;23.40;;;10.40;99.90;;;;;;5141174;27;20042;-86
2022/03/22 08:45:15;;;;;;;39.80;22.92;;;10.60;99.90;;;;;;5106728;27;20046;-86
2022/03/22 08:47:45;;;;;;;40.38;22.88;;;10.70;99.90;;;;;;5106813;27;20109;-86
2022/03/22 08:50:13;;;;;;;38.55;21.95;;;10.90;99.90;;;;;;5122584;27;20043;-86
2022/03/22 08:52:39;;;;;;;39.53;22.45;;;11.20;99.90;;;;;;5109965;27;20106;-86
2022/03/22 08:55:07;;;;;;;38.00;21.60;;;11.40;99.90;;;;;;5127302;27;20087;-86
2022/03/22 08:57:37;;;;;;;36.88;21.25;;;11.50;99.90;;;;;;5124205;27;20054;-88
2022/03/22 09:00:09;;;;;;;41.03;23.02;;;11.70;99.90;;;;;;5125017;27;20106;-84
2022/03/22 09:02:39;;;;;;;36.10;21.90;;;11.90;99.90;;;;;;5144842;27;20035;-84
2022/03/22 09:07:51;;;;;;;40.78;21.95;;;12.10;99.90;;;;;;5129289;27;20051;-84
2022/03/22 09:10:21;;;;;;;33.80;20.45;;;12.20;99.90;;;;;;5132194;27;20049;-84
2022/03/22 09:12:50;;;;;;;37.42;21.77;;;12.30;99.90;;;;;;5135410;27;20062;-87
2022/03/22 09:15:17;;;;;;;36.47;21.83;;;12.40;99.90;;;;;;5129717;27;20027;-84
2022/03/22 09:17:43;;;;;;;40.47;21.60;;;12.50;99.90;;;;;;5152271;27;20065;-84
2022/03/22 09:20:13;;;;;;;35.30;20.52;;;12.50;99.90;;;;;;5133935;27;20046;-84
2022/03/22 09:22:43;;;;;;;35.72;20.30;;;12.60;99.90;;;;;;5134410;27;20579;-84
2022/03/22 09:25:11;;;;;;;32.25;20.27;;;12.70;99.90;;;;;;5132581;27;20160;-85
2022/03/22 09:27:43;;;;;;;33.78;18.77;;;12.80;99.90;;;;;;5133459;27;20039;-87
2022/03/22 09:30:10;;;;;;;35.58;20.17;;;12.80;99.90;;;;;;5148749;27;20046;-86
2022/03/22 09:32:37;;;;;;;37.90;21.48;;;13.00;99.90;;;;;;5148423;27;20462;-85
2022/03/22 09:35:06;;;;;;;35.65;20.15;;;13.00;99.90;;;;;;5129358;27;20104;-85
2022/03/22 09:37:39;;;;;;;32.50;18.85;;;13.20;99.90;;;;;;5127928;27;20031;-84
2022/03/22 09:40:06;;;;;;;30.17;18.85;;;13.20;99.90;;;;;;5147196;27;20108;-84
2022/03/22 09:42:32;;;;;;;32.88;19.80;;;13.20;99.90;;;;;;5112939;27;20047;-85
2022/03/22 09:45:01;;;;;;;31.30;19.02;;;13.30;99.90;;;;;;5106229;27;20039;-85
2022/03/22 09:47:28;;;;;;;32.53;19.42;;;13.40;99.90;;;;;;5105806;27;20062;-85
2022/03/22 09:49:56;;;;;;;32.50;19.35;;;13.60;99.90;;;;;;5139247;27;20104;-85
2022/03/22 09:52:23;;;;;;;31.98;18.95;;;13.70;99.90;;;;;;5139520;27;20055;-85
2022/03/22 09:54:48;;;;;;;33.33;19.90;;;13.80;99.90;;;;;;5123938;28;20118;-85
2022/03/22 09:57:14;;;;;;;34.30;20.52;;;13.90;99.90;;;;;;5143151;27;20067;-85
2022/03/22 09:59:40;;;;;;;33.25;20.20;;;14.00;99.90;;;;;;5127098;27;20091;-85
2022/03/22 10:02:06;;;;;;;33.38;19.50;;;14.10;99.90;;;;;;5125541;27;20047;-87
2022/03/22 10:04:44;;;;;;;31.67;20.23;;;14.20;99.90;;;;;;5126134;28;20069;-85
2022/03/22 10:07:18;;;;;;;31.67;19.83;;;14.30;99.90;;;;;;5108642;27;20121;-85
2022/03/22 10:09:52;;;;;;;32.85;19.67;;;14.40;99.90;;;;;;5127045;27;20047;-85
2022/03/22 10:12:38;;;;;;;34.58;21.30;;;14.50;99.90;;;;;;5127495;28;20050;-85
2022/03/22 10:15:10;;;;;;;34.58;19.60;;;14.60;99.90;;;;;;5108182;27;20057;-83
2022/03/22 10:17:37;;;;;;;33.78;19.92;;;14.80;99.90;;;;;;5123622;28;20107;-83
2022/03/22 10:20:05;;;;;;;32.00;19.08;;;14.90;99.90;;;;;;5125179;28;20042;-83
2022/03/22 10:22:33;;;;;;;30.95;20.08;;;15.00;99.90;;;;;;5125078;28;20071;-83
2022/03/22 10:25:01;;;;;;;29.25;19.33;;;15.10;99.90;;;;;;5143102;28;20039;-83
2022/03/22 10:27:32;;;;;;;31.95;19.42;;;15.20;99.90;;;;;;5122860;28;20480;-84
2022/03/22 10:30:00;;;;;;;32.10;20.17;;;15.20;99.90;;;;;;5123745;28;20448;-85
2022/03/22 10:32:39;;;;;;;34.05;20.20;;;15.30;99.90;;;;;;5123300;28;20054;-83
2022/03/22 10:35:13;;;;;;;29.92;19.83;;;15.50;99.90;;;;;;5121206;28;20385;-83
2022/03/22 10:37:42;;;;;;;32.65;20.20;;;15.50;99.90;;;;;;5142968;28;20114;-84
2022/03/22 10:40:24;;;;;;;31.00;19.50;;;15.80;99.90;;;;;;5126034;27;20393;-83
2022/03/22 10:42:51;;;;;;;31.77;19.35;;;15.80;99.90;;;;;;5127636;27;20039;-83
2022/03/22 10:45:17;;;;;;;31.17;18.98;;;15.90;99.90;;;;;;5125444;27;20050;-83
2022/03/22 10:47:45;;;;;;;30.15;18.95;;;16.10;99.90;;;;;;5141881;27;20035;-84
2022/03/22 10:50:12;;;;;;;28.05;17.52;;;16.20;99.90;;;;;;5126226;27;20074;-83
2022/03/22 10:52:57;;;;;;;30.33;18.92;;;16.30;99.90;;;;;;5128045;27;20048;-83
2022/03/22 10:55:24;;;;;;;;;;;16.50;99.90;;;;;;5110280;27;20047;-85
2022/03/22 10:57:56;;;;;;;29.13;17.80;;;16.50;99.90;;;;;;5126021;27;19973;-83
2022/03/22 11:00:22;;;;;;;28.13;17.85;;;16.60;99.90;;;;;;5128862;27;20481;-87
2022/03/22 11:02:54;;;;;;;26.98;18.17;;;16.60;99.90;;;;;;5134316;27;20042;-86
2022/03/22 11:05:23;;;;;;;30.60;19.00;;;16.70;99.90;;;;;;5133423;27;20043;-86
2022/03/22 11:07:51;;;;;;;29.83;18.52;;;16.90;99.90;;;;;;5148894;27;20054;-86
2022/03/22 11:10:28;;;;;;;27.77;18.05;;;17.00;99.90;;;;;;5109417;27;20039;-84
2022/03/22 11:12:54;;;;;;;31.50;18.35;;;17.10;99.90;;;;;;5110582;27;20054;-84
2022/03/22 11:15:20;;;;;;;27.65;17.77;;;17.20;99.90;;;;;;5144728;27;20071;-84
2022/03/22 11:17:49;;;;;;;25.17;16.73;;;17.30;99.90;;;;;;5109079;27;20051;-89
2022/03/22 11:20:15;;;;;;;27.55;18.38;;;17.40;99.90;;;;;;5125222;27;20066;-87
2022/03/22 11:22:54;;;;;;;23.83;16.63;;;17.50;99.90;;;;;;5110018;27;20043;-86
2022/03/22 11:25:40;;;;;;;29.45;17.60;;;17.50;99.90;;;;;;5109600;27;20524;-91
2022/03/22 11:28:11;;;;;;;26.77;17.98;;;17.70;99.90;;;;;;5126889;27;20057;-87
2022/03/22 11:30:39;;;;;;;25.17;17.02;;;17.70;99.90;;;;;;5127773;27;20552;-86
2022/03/22 11:35:59;;;;;;;24.85;16.02;;;18.00;99.90;;;;;;5123906;27;20393;-89
2022/03/22 11:38:43;;;;;;;23.90;15.47;;;18.10;99.90;;;;;;5135179;27;20062;-90
2022/03/22 11:44:17;;;;;;;24.83;16.20;;;18.20;99.90;;;;;;5129102;27;20117;-87
2022/03/22 11:46:44;;;;;;;25.90;16.33;;;18.40;99.90;;;;;;5142413;27;20039;-84
2022/03/22 11:49:21;;;;;;;27.42;16.60;;;18.40;99.90;;;;;;5123979;27;20039;-86
2022/03/22 11:51:50;;;;;;;25.80;16.55;;;18.50;99.90;;;;;;5124394;27;20464;-87
2022/03/22 11:54:16;;;;;;;25.02;16.63;;;18.60;99.90;;;;;;5106255;27;20134;-87
2022/03/22 11:56:55;;;;;;;30.85;17.17;;;18.60;99.90;;;;;;5141232;27;20078;-89
2022/03/22 11:59:22;;;;;;;26.08;16.75;;;18.80;99.90;;;;;;5123509;27;20046;-85
2022/03/22 12:01:58;;;;;;;24.35;16.73;;;18.90;99.90;;;;;;5125406;27;20061;-84
2022/03/22 12:04:39;;;;;;;25.52;16.48;;;19.00;99.90;;;;;;5124331;27;20051;-87
2022/03/22 12:07:06;;;;;;;24.67;15.70;;;19.20;99.90;;;;;;5143421;27;20043;-84
2022/03/22 12:09:34;;;;;;;22.65;16.38;;;19.20;99.90;;;;;;5123868;27;20079;-88
2022/03/22 12:12:00;;;;;;;23.52;16.05;;;19.20;99.90;;;;;;5126579;27;20059;-90
2022/03/22 12:14:28;;;;;;;24.67;16.65;;;19.40;99.90;;;;;;5124624;27;20082;-92
2022/03/22 12:16:58;;;;;;;22.20;15.07;;;19.40;99.90;;;;;;5123896;27;20118;-87
2022/03/22 12:19:28;;;;;;;24.00;15.65;;;19.50;99.90;;;;;;5122165;27;20054;-89
2022/03/22 12:21:55;;;;;;;21.25;15.23;;;19.60;99.90;;;;;;5131521;27;20096;-83
2022/03/22 12:24:27;;;;;;;23.17;14.93;;;19.70;99.90;;;;;;5111064;27;20047;-88
2022/03/22 12:26:56;;;;;;;22.20;14.52;;;19.80;99.90;;;;;;5125714;27;20096;-87
2022/03/22 12:29:22;;;;;;;24.45;14.27;;;19.90;99.90;;;;;;5142322;27;20139;-85
2022/03/22 12:31:52;;;;;;;21.95;13.98;;;20.10;99.90;;;;;;5128184;27;20046;-86
2022/03/22 12:34:19;;;;;;;24.20;14.02;;;20.30;99.90;;;;;;5147438;27;20059;-88
2022/03/22 12:36:45;;;;;;;22.52;14.10;;;20.40;99.90;;;;;;5145480;27;20120;-92
2022/03/22 12:39:11;;;;;;;23.58;15.45;;;20.40;99.90;;;;;;5112443;27;20100;-91
2022/03/22 12:41:38;;;;;;;22.63;14.52;;;20.50;99.90;;;;;;5107192;27;20043;-92
2022/03/22 12:44:05;;;;;;;20.15;13.52;;;20.60;99.90;;;;;;5118005;27;20046;-89
2022/03/22 12:46:32;;;;;;;19.80;12.85;;;20.80;99.90;;;;;;5117775;27;20043;-86
2022/03/22 12:48:58;;;;;;;20.83;13.73;;;20.80;99.90;;;;;;5119541;27;20049;-92
2022/03/22 12:51:25;;;;;;;22.15;13.45;;;20.90;99.20;;;;;;5119573;27;20043;-86
2022/03/22 12:53:54;;;;;;;21.30;12.57;;;20.90;98.70;;;;;;5140746;27;20070;-89
2022/03/22 12:56:21;;;;;;;18.75;12.88;;;21.20;97.70;;;;;;5156802;27;20058;-86
2022/03/22 12:58:49;;;;;;;20.38;13.23;;;21.30;96.60;;;;;;5139088;27;20047;-86
2022/03/22 13:01:15;;;;;;;21.52;13.77;;;21.40;96.90;;;;;;5139055;27;20039;-87
2022/03/22 13:03:42;;;;;;;19.95;13.52;;;21.60;96.30;;;;;;5141047;28;20023;-86
2022/03/22 13:06:08;;;;;;;19.17;13.07;;;21.60;95.70;;;;;;5141271;27;20047;-87
2022/03/22 13:11:30;;;;;;;19.95;12.73;;;21.90;94.60;;;;;;5137899;27;20065;-88
2022/03/22 13:16:54;;;;;;;18.58;12.35;;;22.10;91.50;;;;;;5139481;27;20084;-86
2022/03/22 13:19:20;;;;;;;18.83;12.32;;;22.40;90.70;;;;;;5134462;27;20450;-86
2022/03/22 13:21:46;;;;;;;18.70;11.80;;;22.50;91.60;;;;;;5136772;27;20064;-86
2022/03/22 13:24:20;;;;;;;18.48;11.52;;;22.70;90.80;;;;;;5154826;27;20030;-85
2022/03/22 13:26:56;;;;;;;19.70;12.27;;;22.80;90.20;;;;;;5135248;27;20039;-86